Saint Monance, United Kingdom
Current Conditions -  °F | °C
As of 12:50 AM on Wednesday 28 Jan 2015 (Local Time) from EGQL Reporting Station
Haze Haze  
Wind Chill: 37°   Ceiling: 1100
Heat Index: 45°   Visibility: 4mi
Dew Point: 43°   Wind: 17mph
Humidity: 93%   Direction: 240°WSW
Pressure: 29.56"   Gusts: NA
Location:  56.21°N, 2.77°W
Report Text: EGQL 280050Z 24015KT 6000 BR BKN011 07/06 Q1001 GRN
Loading
Personal Weather Stations






























Interactive Weather Map New forecast layout! Learn more

10-Day Weather Forecast

Advertisements
Track Severe Weather on mobile